Time;durP1;ratioP1;P1;durP2;ratioP2;P2;SDS_P1;SDS_P2;PMS_P1;PMS_P2;Temp;Humidity;BMP_temperature;BMP_pressure;BME280_temperature;BME280_humidity;BME280_pressure;Samples;Min_cycle;Max_cycle;Signal;HPM_P1;HPM_P2
2022/01/20 00:00:14;;;;;;;80.45;41.65;;;;;;;;;;4926971;29;20111;-95
2022/01/20 00:02:46;;;;;;;88.38;42.03;;;;;;;;;;4943745;29;20067;-94
2022/01/20 00:08:04;;;;;;;92.88;43.20;;;;;;;;;;4943709;29;20059;-94
2022/01/20 00:27:03;;;;;;;82.93;38.97;;;;;;;;;;4943044;29;20449;-94
2022/01/20 00:29:32;;;;;;;;;;;;;;;;;;4926867;29;20122;-93
2022/01/20 00:32:10;;;;;;;81.72;39.22;;;;;;;;;;4943189;29;19906;-94
2022/01/20 00:37:26;;;;;;;91.80;43.47;;;;;;;;;;4884678;29;20033;-93
2022/01/20 00:39:53;;;;;;;93.47;43.50;;;;;;;;;;4885220;29;20089;-94
2022/01/20 00:42:19;;;;;;;92.93;44.78;;;;;;;;;;4869143;29;20041;-94
2022/01/20 00:44:46;;;;;;;94.32;43.47;;;;;;;;;;4884745;29;20513;-94
2022/01/20 00:47:12;;;;;;;95.32;44.22;;;;;;;;;;4884607;29;20037;-93
2022/01/20 00:49:38;;;;;;;86.10;41.78;;;;;;;;;;4884593;29;20033;-94
2022/01/20 00:52:05;;;;;;;88.85;42.67;;;;;;;;;;4868999;29;20424;-94
2022/01/20 00:54:32;;;;;;;94.75;44.17;;;;;;;;;;4868841;29;20064;-95
2022/01/20 00:56:58;;;;;;;88.57;41.80;;;;;;;;;;4884528;29;20072;-95
2022/01/20 00:59:26;;;;;;;73.95;35.88;;;;;;;;;;4884402;29;20067;-94
2022/01/20 01:01:52;;;;;;;71.15;37.45;;;;;;;;;;4884409;29;20115;-94
2022/01/20 01:04:18;;;;;;;110.10;46.65;;;;;;;;;;4868893;29;20416;-94
2022/01/20 01:09:13;;;;;;;89.93;42.80;;;;;;;;;;4884336;29;20032;-95
2022/01/20 01:11:42;;;;;;;76.90;36.38;;;;;;;;;;4868631;29;20044;-93
2022/01/20 01:14:08;;;;;;;69.78;34.92;;;;;;;;;;4905880;29;20036;-94
2022/01/20 01:22:21;;;;;;;83.97;39.15;;;;;;;;;;4942426;29;20039;-95
2022/01/20 01:24:50;;;;;;;87.88;41.63;;;;;;;;;;4942180;29;20032;-94
2022/01/20 01:27:16;;;;;;;84.30;40.47;;;;;;;;;;4941909;29;20126;-93
2022/01/20 01:35:19;;;;;;;109.60;48.88;;;;;;;;;;4883283;29;20125;-95
2022/01/20 01:40:22;;;;;;;102.53;45.15;;;;;;;;;;4883549;29;20328;-95
2022/01/20 01:42:51;;;;;;;83.40;40.03;;;;;;;;;;4883675;29;20036;-94
2022/01/20 01:45:19;;;;;;;95.78;45.50;;;;;;;;;;4883677;29;20025;-95
2022/01/20 01:47:46;;;;;;;117.55;50.97;;;;;;;;;;4867978;29;20119;-95
2022/01/20 01:50:13;;;;;;;101.22;46.63;;;;;;;;;;4883589;29;20021;-94
2022/01/20 01:52:39;;;;;;;100.80;48.53;;;;;;;;;;4883073;29;20076;-95
2022/01/20 01:55:06;;;;;;;107.03;51.63;;;;;;;;;;4882702;29;20037;-94
2022/01/20 01:57:33;;;;;;;147.18;65.25;;;;;;;;;;4883280;29;20029;-95
2022/01/20 01:59:59;;;;;;;178.30;75.63;;;;;;;;;;4883470;29;20029;-94
2022/01/20 02:02:25;;;;;;;182.75;70.45;;;;;;;;;;4883289;29;20022;-96
2022/01/20 02:04:54;;;;;;;135.32;57.38;;;;;;;;;;4883331;29;20103;-91
2022/01/20 02:07:49;;;;;;;101.75;48.15;;;;;;;;;;4883335;29;20048;-91
2022/01/20 02:21:11;;;;;;;97.63;44.05;;;;;;;;;;4941250;29;20042;-91
2022/01/20 02:23:37;;;;;;;87.88;42.45;;;;;;;;;;4940875;29;20039;-91
2022/01/20 02:26:03;;;;;;;87.70;43.17;;;;;;;;;;4940941;29;20051;-90
2022/01/20 02:28:29;;;;;;;80.63;40.10;;;;;;;;;;4924266;29;20024;-91
2022/01/20 02:30:56;;;;;;;75.68;40.40;;;;;;;;;;4941010;29;20143;-91
2022/01/20 02:33:24;;;;;;;81.82;40.35;;;;;;;;;;4940928;29;20034;-90
2022/01/20 02:35:55;;;;;;;123.15;51.05;;;;;;;;;;4940975;29;20415;-91
2022/01/20 02:38:35;;;;;;;191.20;77.15;;;;;;;;;;4923944;29;20035;-92
2022/01/20 02:46:31;;;;;;;155.10;67.38;;;;;;;;;;4940700;29;20051;-91
2022/01/20 02:48:57;;;;;;;177.63;82.63;;;;;;;;;;4940602;29;20024;-91
2022/01/20 02:51:24;;;;;;;132.80;62.55;;;;;;;;;;4940717;29;20045;-90
2022/01/20 02:53:50;;;;;;;135.48;62.47;;;;;;;;;;4940521;29;20418;-90
2022/01/20 02:56:16;;;;;;;120.63;56.25;;;;;;;;;;4940426;29;20027;-89
2022/01/20 02:58:42;;;;;;;118.32;52.30;;;;;;;;;;4940647;29;20338;-91
2022/01/20 03:01:08;;;;;;;97.95;46.22;;;;;;;;;;4940579;29;20034;-91
2022/01/20 03:03:35;;;;;;;87.28;44.03;;;;;;;;;;4923601;29;20027;-90
2022/01/20 03:06:01;;;;;;;97.82;47.33;;;;;;;;;;4922671;29;20071;-90
2022/01/20 03:08:27;;;;;;;93.47;48.15;;;;;;;;;;4923421;29;20032;-90
2022/01/20 03:10:53;;;;;;;112.82;55.17;;;;;;;;;;4940579;29;20333;-89
2022/01/20 03:13:20;;;;;;;106.63;51.97;;;;;;;;;;4940683;29;20083;-90
2022/01/20 03:15:46;;;;;;;104.55;51.50;;;;;;;;;;4940496;29;20032;-90
2022/01/20 03:18:12;;;;;;;92.10;49.03;;;;;;;;;;4940400;29;20035;-90
2022/01/20 03:20:38;;;;;;;93.22;47.17;;;;;;;;;;4923345;29;20407;-91
2022/01/20 03:23:04;;;;;;;89.13;46.70;;;;;;;;;;4939957;29;20106;-92
2022/01/20 03:25:31;;;;;;;94.57;47.13;;;;;;;;;;4923276;29;20028;-91
2022/01/20 03:27:57;;;;;;;101.88;48.55;;;;;;;;;;4940367;29;20099;-92
2022/01/20 03:30:24;;;;;;;94.75;48.13;;;;;;;;;;4940371;29;20047;-91
2022/01/20 03:32:50;;;;;;;99.53;47.83;;;;;;;;;;4940077;29;20028;-92
2022/01/20 03:35:16;;;;;;;97.28;46.92;;;;;;;;;;4940264;29;20051;-91
2022/01/20 03:37:43;;;;;;;99.32;46.85;;;;;;;;;;4923367;29;20449;-92
2022/01/20 03:40:09;;;;;;;94.57;45.78;;;;;;;;;;4940264;29;20028;-91
2022/01/20 03:42:35;;;;;;;98.32;46.55;;;;;;;;;;4923218;29;20092;-91
2022/01/20 03:45:01;;;;;;;99.60;48.85;;;;;;;;;;4940221;29;20053;-91
2022/01/20 03:47:29;;;;;;;102.63;48.67;;;;;;;;;;4923244;29;20099;-90
2022/01/20 03:52:27;;;;;;;110.78;51.47;;;;;;;;;;4939835;29;20453;-90
2022/01/20 03:54:54;;;;;;;108.25;48.88;;;;;;;;;;4923221;29;20032;-91
2022/01/20 03:57:20;;;;;;;96.22;45.45;;;;;;;;;;4939893;29;20035;-91
2022/01/20 03:59:46;;;;;;;99.55;47.13;;;;;;;;;;4923055;29;20071;-90
2022/01/20 04:02:13;;;;;;;97.22;47.65;;;;;;;;;;4923104;29;20094;-91
2022/01/20 04:04:39;;;;;;;96.35;46.50;;;;;;;;;;4939891;29;20024;-91
2022/01/20 04:07:05;;;;;;;91.35;45.90;;;;;;;;;;4940037;29;20066;-91
2022/01/20 04:09:32;;;;;;;92.88;47.05;;;;;;;;;;4922976;29;20669;-93
2022/01/20 04:11:58;;;;;;;89.75;45.85;;;;;;;;;;4939937;29;20024;-91
2022/01/20 04:14:26;;;;;;;94.88;45.60;;;;;;;;;;4939859;29;20426;-92
2022/01/20 04:19:22;;;;;;;90.22;45.25;;;;;;;;;;4943458;29;20031;-91
2022/01/20 04:21:48;;;;;;;92.65;43.65;;;;;;;;;;4943331;29;20300;-91
2022/01/20 04:24:15;;;;;;;96.45;43.40;;;;;;;;;;4943170;29;20031;-93
2022/01/20 04:26:43;;;;;;;87.88;44.05;;;;;;;;;;4942977;29;20065;-92
2022/01/20 04:29:11;;;;;;;90.07;43.15;;;;;;;;;;4943255;29;20023;-92
2022/01/20 04:31:37;;;;;;;91.38;45.03;;;;;;;;;;4943027;29;20048;-91
2022/01/20 04:34:04;;;;;;;94.80;46.33;;;;;;;;;;4943002;29;20024;-92
2022/01/20 04:36:32;;;;;;;96.55;47.45;;;;;;;;;;4926149;29;20119;-92
2022/01/20 04:39:02;;;;;;;100.82;47.28;;;;;;;;;;4943040;29;20028;-91
2022/01/20 04:41:31;;;;;;;102.88;49.72;;;;;;;;;;4926278;29;20031;-92
2022/01/20 04:44:01;;;;;;;100.68;49.42;;;;;;;;;;4942144;29;20061;-91
2022/01/20 04:56:58;;;;;;;104.00;49.88;;;;;;;;;;4943091;29;20411;-91
2022/01/20 04:59:41;;;;;;;117.22;52.80;;;;;;;;;;4942550;29;20080;-91
2022/01/20 05:02:07;;;;;;;117.50;57.25;;;;;;;;;;4925904;29;20036;-93
2022/01/20 05:04:34;;;;;;;129.77;60.95;;;;;;;;;;4942784;29;20031;-92
2022/01/20 05:07:00;;;;;;;137.57;61.63;;;;;;;;;;4942553;29;20383;-92
2022/01/20 05:09:27;;;;;;;114.00;58.30;;;;;;;;;;4942340;29;20111;-92
2022/01/20 05:12:00;;;;;;;121.70;57.38;;;;;;;;;;4925433;29;20036;-91
2022/01/20 05:14:27;;;;;;;115.07;56.00;;;;;;;;;;4925538;29;20032;-92
2022/01/20 05:16:55;;;;;;;127.88;62.80;;;;;;;;;;4942383;29;20027;-90
2022/01/20 05:19:21;;;;;;;140.70;68.97;;;;;;;;;;4925512;29;20035;-91
2022/01/20 05:21:47;;;;;;;126.35;65.72;;;;;;;;;;4942047;29;20123;-91
2022/01/20 05:24:13;;;;;;;122.65;63.78;;;;;;;;;;4942280;29;20028;-91
2022/01/20 05:26:39;;;;;;;135.18;65.30;;;;;;;;;;4925256;29;20075;-91
2022/01/20 05:29:05;;;;;;;149.63;70.60;;;;;;;;;;4940518;29;20490;-91
2022/01/20 05:31:31;;;;;;;153.55;73.03;;;;;;;;;;4925188;29;20096;-91
2022/01/20 05:37:01;;;;;;;151.45;70.93;;;;;;;;;;4942137;29;20470;-92
2022/01/20 05:39:27;;;;;;;147.63;69.75;;;;;;;;;;4941726;29;20027;-92
2022/01/20 05:41:53;;;;;;;143.43;67.82;;;;;;;;;;4925017;29;20062;-92
2022/01/20 05:44:19;;;;;;;154.60;70.30;;;;;;;;;;4942136;29;20020;-92
2022/01/20 05:46:48;;;;;;;139.05;67.63;;;;;;;;;;4941890;29;20047;-92
2022/01/20 05:49:20;;;;;;;146.23;69.70;;;;;;;;;;4924937;29;20028;-93
2022/01/20 05:51:47;;;;;;;139.60;67.85;;;;;;;;;;4941445;29;20027;-91
2022/01/20 05:54:13;;;;;;;137.30;66.68;;;;;;;;;;4941566;29;20053;-91
2022/01/20 05:56:39;;;;;;;130.15;64.18;;;;;;;;;;4941518;29;20042;-92
2022/01/20 05:59:05;;;;;;;137.23;66.80;;;;;;;;;;4924780;29;20075;-92
2022/01/20 06:01:36;;;;;;;136.27;65.65;;;;;;;;;;4924746;29;20334;-91
2022/01/20 06:04:02;;;;;;;135.95;62.83;;;;;;;;;;4941692;29;20032;-91
2022/01/20 06:06:28;;;;;;;136.65;69.40;;;;;;;;;;4923698;29;20031;-90
2022/01/20 06:08:54;;;;;;;135.30;66.35;;;;;;;;;;4941381;29;20111;-91
2022/01/20 06:11:20;;;;;;;135.13;67.30;;;;;;;;;;4941306;29;20024;-91
2022/01/20 06:13:46;;;;;;;133.95;68.70;;;;;;;;;;4924431;29;20020;-92
2022/01/20 06:16:13;;;;;;;129.23;67.18;;;;;;;;;;4924581;29;20140;-91
2022/01/20 06:21:45;;;;;;;149.23;75.07;;;;;;;;;;4941109;29;20038;-94
2022/01/20 06:24:11;;;;;;;147.55;73.97;;;;;;;;;;4941067;29;20032;-92
2022/01/20 06:26:37;;;;;;;137.32;72.38;;;;;;;;;;4940996;29;20054;-93
2022/01/20 06:29:03;;;;;;;143.77;74.93;;;;;;;;;;4924029;29;20032;-92
2022/01/20 06:31:29;;;;;;;134.77;65.25;;;;;;;;;;4941179;29;20047;-90
2022/01/20 06:33:55;;;;;;;121.88;63.95;;;;;;;;;;4940632;29;20032;-91
2022/01/20 06:36:21;;;;;;;164.63;78.57;;;;;;;;;;4923856;29;20419;-91
2022/01/20 06:38:47;;;;;;;194.57;93.55;;;;;;;;;;4940616;29;20407;-92
2022/01/20 06:41:13;;;;;;;151.02;72.97;;;;;;;;;;4940743;29;20137;-91
2022/01/20 06:43:39;;;;;;;142.15;71.13;;;;;;;;;;4941044;29;20031;-91
2022/01/20 06:46:06;;;;;;;132.50;68.03;;;;;;;;;;4923565;29;20126;-91
2022/01/20 06:54:39;;;;;;;153.93;75.28;;;;;;;;;;4940662;28;20035;-92
2022/01/20 06:57:05;;;;;;;154.35;72.55;;;;;;;;;;4923829;29;20038;-92
2022/01/20 06:59:31;;;;;;;137.30;64.72;;;;;;;;;;4940284;29;20030;-91
2022/01/20 07:01:57;;;;;;;116.95;55.58;;;;;;;;;;4923803;29;20403;-91
2022/01/20 07:04:25;;;;;;;103.38;50.35;;;;;;;;;;4917668;29;20031;-92
2022/01/20 07:06:52;;;;;;;86.28;43.38;;;;;;;;;;4940180;29;20031;-92
2022/01/20 07:09:18;;;;;;;77.43;42.20;;;;;;;;;;4940435;29;20030;-91
2022/01/20 07:11:44;;;;;;;97.63;49.40;;;;;;;;;;4923593;29;20055;-88
2022/01/20 07:14:10;;;;;;;107.07;56.55;;;;;;;;;;4923593;29;20028;-93
2022/01/20 07:16:36;;;;;;;115.75;65.00;;;;;;;;;;4923613;29;20032;-91
2022/01/20 07:19:02;;;;;;;110.28;60.60;;;;;;;;;;4940470;29;20050;-91
2022/01/20 07:21:28;;;;;;;102.05;54.63;;;;;;;;;;4923354;29;20034;-92
2022/01/20 07:23:55;;;;;;;122.60;62.00;;;;;;;;;;4923624;29;20031;-91
2022/01/20 07:26:21;;;;;;;130.70;61.08;;;;;;;;;;4923176;29;20427;-92
2022/01/20 07:28:47;;;;;;;148.70;66.82;;;;;;;;;;4923035;29;20064;-91
2022/01/20 07:31:16;;;;;;;233.40;95.28;;;;;;;;;;4923419;29;20035;-91
2022/01/20 07:33:44;;;;;;;318.70;123.25;;;;;;;;;;4940342;29;20423;-93
2022/01/20 07:36:10;;;;;;;302.75;119.20;;;;;;;;;;4937189;29;20115;-92
2022/01/20 07:38:36;;;;;;;156.43;71.57;;;;;;;;;;4908374;29;20040;-91
2022/01/20 07:41:02;;;;;;;106.82;51.33;;;;;;;;;;4932228;29;20079;-91
2022/01/20 07:43:28;;;;;;;89.68;45.65;;;;;;;;;;4904381;29;20036;-91
2022/01/20 07:45:55;;;;;;;84.35;42.75;;;;;;;;;;4921067;29;20024;-91
2022/01/20 07:48:21;;;;;;;83.00;41.72;;;;;;;;;;4920970;29;20400;-92
2022/01/20 07:50:47;;;;;;;86.55;44.83;;;;;;;;;;4921222;29;20431;-92
2022/01/20 08:15:12;;;;;;;450.17;176.45;;;;;;;;;;6127390;22;2176046;-92
2022/01/20 08:17:42;;;;;;;360.98;139.52;;;;;;;;;;6228428;23;20271;-91
2022/01/20 08:20:09;;;;;;;303.35;122.95;;;;;;;;;;6229484;23;20005;-90
2022/01/20 08:22:36;;;;;;;271.35;114.63;;;;;;;;;;6228666;23;20009;-91
2022/01/20 08:25:06;;;;;;;305.35;125.43;;;;;;;;;;6229955;23;20008;-92
2022/01/20 08:27:32;;;;;;;342.10;128.25;;;;;;;;;;6230062;23;20010;-90
2022/01/20 08:29:58;;;;;;;405.58;147.73;;;;;;;;;;6229379;23;19996;-91
2022/01/20 08:32:24;;;;;;;450.58;165.25;;;;;;;;;;6229950;23;20000;-91
2022/01/20 08:34:50;;;;;;;443.83;168.93;;;;;;;;;;6229480;23;20001;-90
2022/01/20 08:37:16;;;;;;;475.92;195.05;;;;;;;;;;6229921;23;20000;-90
2022/01/20 08:39:44;;;;;;;504.27;217.20;;;;;;;;;;6229571;23;20362;-92
2022/01/20 08:42:10;;;;;;;489.55;207.20;;;;;;;;;;6228696;23;20023;-90
2022/01/20 08:44:37;;;;;;;461.02;215.60;;;;;;;;;;6228231;23;20012;-90
2022/01/20 08:47:04;;;;;;;462.10;211.82;;;;;;;;;;6229738;23;20008;-90
2022/01/20 08:49:30;;;;;;;454.27;203.77;;;;;;;;;;6229800;23;20250;-91
2022/01/20 08:51:56;;;;;;;465.38;201.75;;;;;;;;;;6228884;23;20005;-90
2022/01/20 08:54:22;;;;;;;435.00;172.95;;;;;;;;;;6229211;23;20008;-91
2022/01/20 08:56:50;;;;;;;416.98;168.15;;;;;;;;;;6229204;23;20009;-91
2022/01/20 08:59:16;;;;;;;410.95;169.40;;;;;;;;;;6229505;23;20355;-89
2022/01/20 09:01:43;;;;;;;330.02;132.05;;;;;;;;;;6229720;23;20005;-91
2022/01/20 09:04:09;;;;;;;313.02;128.27;;;;;;;;;;6229200;23;20252;-90
2022/01/20 09:06:35;;;;;;;224.80;96.90;;;;;;;;;;6229034;23;20005;-91
2022/01/20 09:09:01;;;;;;;228.40;95.72;;;;;;;;;;6229283;23;20000;-91
2022/01/20 09:11:36;;;;;;;168.07;73.70;;;;;;;;;;6229156;23;20359;-91
2022/01/20 09:16:46;;;;;;;145.00;65.13;;;;;;;;;;6222669;23;20056;-91
2022/01/20 09:19:13;;;;;;;208.82;91.45;;;;;;;;;;6222448;23;20351;-91
2022/01/20 09:21:39;;;;;;;122.60;58.63;;;;;;;;;;6222379;23;20004;-90
2022/01/20 09:24:06;;;;;;;103.03;52.47;;;;;;;;;;6223021;23;20008;-92
2022/01/20 09:26:32;;;;;;;131.00;61.83;;;;;;;;;;6222715;23;20008;-91
2022/01/20 09:28:58;;;;;;;238.68;103.72;;;;;;;;;;6221141;23;20005;-92
2022/01/20 09:31:26;;;;;;;306.50;132.18;;;;;;;;;;6222370;23;20367;-91
2022/01/20 09:33:53;;;;;;;306.52;135.20;;;;;;;;;;6222348;23;20377;-90
2022/01/20 09:36:20;;;;;;;279.20;118.13;;;;;;;;;;6222225;23;20009;-92
2022/01/20 09:38:46;;;;;;;240.68;99.90;;;;;;;;;;6222723;23;20119;-92
2022/01/20 09:41:12;;;;;;;189.95;80.10;;;;;;;;;;6220647;23;20320;-91
2022/01/20 09:43:38;;;;;;;169.25;75.63;;;;;;;;;;6222075;23;20008;-91
2022/01/20 09:46:05;;;;;;;195.55;83.70;;;;;;;;;;6222802;23;20015;-91
2022/01/20 09:48:34;;;;;;;217.27;96.03;;;;;;;;;;6221083;23;20028;-91
2022/01/20 09:51:00;;;;;;;206.20;93.00;;;;;;;;;;6221973;23;19997;-92
2022/01/20 09:53:27;;;;;;;221.88;99.32;;;;;;;;;;6221035;23;20012;-91
2022/01/20 09:55:54;;;;;;;199.25;87.57;;;;;;;;;;6221108;23;20005;-91
2022/01/20 09:58:21;;;;;;;187.07;80.47;;;;;;;;;;6222449;23;20009;-90
2022/01/20 10:00:47;;;;;;;164.57;79.32;;;;;;;;;;6222239;23;20005;-91
2022/01/20 10:03:17;;;;;;;146.07;72.03;;;;;;;;;;6221852;23;20437;-91
2022/01/20 10:05:48;;;;;;;161.43;74.25;;;;;;;;;;6222610;23;20063;-92
2022/01/20 10:08:21;;;;;;;157.52;70.50;;;;;;;;;;6222175;23;20012;-90
2022/01/20 10:11:08;;;;;;;139.15;62.28;;;;;;;;;;6222449;23;20003;-91
2022/01/20 10:13:36;;;;;;;134.60;56.30;;;;;;;;;;6222151;23;20224;-90
2022/01/20 10:16:02;;;;;;;129.82;56.50;;;;;;;;;;6221873;23;20020;-91
2022/01/20 10:18:28;;;;;;;131.10;51.17;;;;;;;;;;6222147;23;20317;-90
2022/01/20 10:21:02;;;;;;;130.50;50.70;;;;;;;;;;6221805;23;20011;-90
2022/01/20 10:23:33;;;;;;;132.68;49.75;;;;;;;;;;6221705;23;20027;-91
2022/01/20 10:26:03;;;;;;;117.47;48.78;;;;;;;;;;6220600;23;20139;-91
2022/01/20 10:28:29;;;;;;;126.95;52.20;;;;;;;;;;6220675;23;20119;-91
2022/01/20 10:30:56;;;;;;;148.38;58.42;;;;;;;;;;6219906;23;20001;-90
2022/01/20 10:33:22;;;;;;;131.38;57.38;;;;;;;;;;6222060;23;20004;-90
2022/01/20 10:35:48;;;;;;;139.07;64.88;;;;;;;;;;6221601;23;20091;-91
2022/01/20 10:38:16;;;;;;;104.22;51.83;;;;;;;;;;6221376;23;20004;-90
2022/01/20 10:40:49;;;;;;;91.10;48.42;;;;;;;;;;6220788;23;20015;-90
2022/01/20 10:43:19;;;;;;;105.60;52.72;;;;;;;;;;6221427;23;20389;-90
2022/01/20 10:45:45;;;;;;;140.75;69.28;;;;;;;;;;6222082;23;20012;-89
2022/01/20 10:48:17;;;;;;;165.50;81.20;;;;;;;;;;6221935;23;20003;-90
2022/01/20 10:50:43;;;;;;;163.27;89.63;;;;;;;;;;6221683;23;20007;-90
2022/01/20 10:53:23;;;;;;;131.13;71.57;;;;;;;;;;6220503;23;20008;-90
2022/01/20 10:55:49;;;;;;;118.07;62.83;;;;;;;;;;6220446;23;20000;-90
2022/01/20 10:58:20;;;;;;;119.22;62.97;;;;;;;;;;6221581;23;20083;-91
2022/01/20 11:00:48;;;;;;;132.52;62.63;;;;;;;;;;6220382;23;20004;-90
2022/01/20 11:03:15;;;;;;;161.57;62.83;;;;;;;;;;6220100;23;20055;-90
2022/01/20 11:05:44;;;;;;;199.45;76.80;;;;;;;;;;6221794;23;20000;-91
2022/01/20 11:08:10;;;;;;;161.95;59.08;;;;;;;;;;6220430;23;19997;-90
2022/01/20 11:10:42;;;;;;;141.90;58.70;;;;;;;;;;6219724;23;20008;-90
2022/01/20 11:13:08;;;;;;;125.47;58.65;;;;;;;;;;6221655;23;20054;-91
2022/01/20 11:15:34;;;;;;;124.32;59.10;;;;;;;;;;6221306;23;20024;-89
2022/01/20 11:18:00;;;;;;;179.00;73.80;;;;;;;;;;6219498;23;20031;-91
2022/01/20 11:20:30;;;;;;;193.63;79.55;;;;;;;;;;6219949;23;20011;-90
2022/01/20 11:23:09;;;;;;;207.70;85.20;;;;;;;;;;6221235;23;20076;-91
2022/01/20 11:25:37;;;;;;;173.13;69.18;;;;;;;;;;6221736;23;20004;-90
2022/01/20 11:28:09;;;;;;;140.30;56.65;;;;;;;;;;6221788;23;19996;-90
2022/01/20 11:30:42;;;;;;;128.57;53.55;;;;;;;;;;6219583;23;20255;-89
2022/01/20 11:33:08;;;;;;;134.48;53.40;;;;;;;;;;6219935;23;20001;-89
2022/01/20 11:35:38;;;;;;;145.07;59.95;;;;;;;;;;6221597;23;20009;-90
2022/01/20 11:38:05;;;;;;;143.00;58.50;;;;;;;;;;6220976;23;20009;-90
2022/01/20 11:40:31;;;;;;;168.77;64.18;;;;;;;;;;6219992;23;20011;-89
2022/01/20 11:43:08;;;;;;;136.50;60.10;;;;;;;;;;6220953;23;20004;-89
2022/01/20 11:45:35;;;;;;;169.05;67.07;;;;;;;;;;6221111;23;20439;-91
2022/01/20 11:48:15;;;;;;;224.88;81.70;;;;;;;;;;6219737;23;20267;-90
2022/01/20 11:50:43;;;;;;;206.38;78.75;;;;;;;;;;6221241;23;20224;-90
2022/01/20 11:53:27;;;;;;;159.40;65.80;;;;;;;;;;6219632;23;20008;-90
2022/01/20 11:55:54;;;;;;;146.95;62.03;;;;;;;;;;6221135;23;20036;-89
2022/01/20 11:58:22;;;;;;;114.65;55.90;;;;;;;;;;6221560;23;20254;-88
2022/01/20 12:01:08;;;;;;;97.50;50.05;;;;;;;;;;6219970;23;20005;-90
2022/01/20 12:03:35;;;;;;;95.32;50.95;;;;;;;;;;6217681;23;20058;-89
2022/01/20 12:06:08;;;;;;;106.18;53.40;;;;;;;;;;6220905;23;20397;-89
2022/01/20 12:08:35;;;;;;;123.43;59.90;;;;;;;;;;6221234;23;20111;-90
2022/01/20 12:11:02;;;;;;;126.72;65.72;;;;;;;;;;6220531;23;20004;-89
2022/01/20 12:13:30;;;;;;;127.63;60.63;;;;;;;;;;6219623;23;20372;-91
2022/01/20 12:15:58;;;;;;;130.45;61.05;;;;;;;;;;6220938;23;20100;-90
2022/01/20 12:18:24;;;;;;;130.75;60.72;;;;;;;;;;6219738;23;20009;-92
2022/01/20 12:20:50;;;;;;;112.68;55.63;;;;;;;;;;6220921;23;20363;-90
2022/01/20 12:23:20;;;;;;;115.85;58.35;;;;;;;;;;6221207;23;20008;-89
2022/01/20 12:25:46;;;;;;;119.30;60.33;;;;;;;;;;6218986;23;20005;-89
2022/01/20 12:28:14;;;;;;;129.73;63.97;;;;;;;;;;6219812;23;20004;-89
2022/01/20 12:30:47;;;;;;;153.70;72.05;;;;;;;;;;6220821;23;20001;-90
2022/01/20 12:33:15;;;;;;;157.52;74.82;;;;;;;;;;6221257;23;20011;-90
2022/01/20 12:35:43;;;;;;;160.00;78.43;;;;;;;;;;6221212;23;20004;-90
2022/01/20 12:38:22;;;;;;;151.70;73.05;;;;;;;;;;6219288;23;20102;-89
2022/01/20 12:40:58;;;;;;;139.63;70.40;;;;;;;;;;6220830;23;20139;-89
2022/01/20 12:43:33;;;;;;;143.07;68.82;;;;;;;;;;6220718;23;20379;-90
2022/01/20 12:46:00;;;;;;;155.43;72.10;;;;;;;;;;6218942;23;20047;-89
2022/01/20 12:48:26;;;;;;;134.80;61.35;;;;;;;;;;6219776;23;20271;-89
2022/01/20 12:50:52;;;;;;;141.32;67.10;;;;;;;;;;6222384;23;20008;-90
2022/01/20 12:53:18;;;;;;;140.65;65.80;;;;;;;;;;6221125;23;20415;-89
2022/01/20 12:55:52;;;;;;;158.88;87.70;;;;;;;;;;6223156;23;20005;-88
2022/01/20 12:58:18;;;;;;;221.38;112.43;;;;;;;;;;6223154;23;20429;-90
2022/01/20 13:00:44;;;;;;;189.77;96.65;;;;;;;;;;6222693;23;19997;-89
2022/01/20 13:03:10;;;;;;;140.63;72.50;;;;;;;;;;6222142;23;20028;-89
2022/01/20 13:05:41;;;;;;;115.38;60.70;;;;;;;;;;6222566;23;20000;-90
2022/01/20 13:08:07;;;;;;;123.65;61.35;;;;;;;;;;6221548;23;20244;-90
2022/01/20 13:10:34;;;;;;;135.02;66.80;;;;;;;;;;6221546;23;20004;-89
2022/01/20 13:13:05;;;;;;;178.55;85.18;;;;;;;;;;6220649;23;20040;-89
2022/01/20 13:15:32;;;;;;;217.35;101.72;;;;;;;;;;6221828;23;20031;-89
2022/01/20 13:18:03;;;;;;;288.65;131.05;;;;;;;;;;6220504;23;20072;-91
2022/01/20 13:20:31;;;;;;;183.95;89.32;;;;;;;;;;6221247;23;20016;-89
2022/01/20 13:23:09;;;;;;;100.00;54.25;;;;;;;;;;6222112;23;20005;-90
2022/01/20 13:25:40;;;;;;;119.45;61.38;;;;;;;;;;6221449;23;20001;-90
2022/01/20 13:28:07;;;;;;;163.32;77.25;;;;;;;;;;6222946;23;20005;-89
2022/01/20 13:30:39;;;;;;;155.20;76.35;;;;;;;;;;6222736;23;20008;-90
2022/01/20 13:33:06;;;;;;;159.60;77.25;;;;;;;;;;6222338;23;20390;-91
2022/01/20 13:35:40;;;;;;;156.55;78.82;;;;;;;;;;6221086;23;20012;-90
2022/01/20 13:38:07;;;;;;;142.32;68.93;;;;;;;;;;6222645;23;20015;-90
2022/01/20 13:40:34;;;;;;;123.53;63.30;;;;;;;;;;6220655;23;20009;-90
2022/01/20 13:46:04;;;;;;;99.97;54.60;;;;;;;;;;6222354;23;20035;-90
2022/01/20 13:48:34;;;;;;;89.88;48.85;;;;;;;;;;6221133;23;20366;-90
2022/01/20 13:51:03;;;;;;;87.97;47.10;;;;;;;;;;6222608;23;20001;-90
2022/01/20 13:53:30;;;;;;;110.18;59.80;;;;;;;;;;6221591;23;20015;-90
2022/01/20 13:55:58;;;;;;;108.13;57.97;;;;;;;;;;6222190;23;20005;-89
2022/01/20 13:58:32;;;;;;;107.90;53.47;;;;;;;;;;6220994;23;20359;-89
2022/01/20 14:00:59;;;;;;;88.45;47.65;;;;;;;;;;6222174;23;20008;-91
2022/01/20 14:03:25;;;;;;;94.82;47.97;;;;;;;;;;6222282;23;20005;-90
2022/01/20 14:05:55;;;;;;;90.85;48.25;;;;;;;;;;6222352;23;20004;-89
2022/01/20 14:08:22;;;;;;;87.13;43.97;;;;;;;;;;6222144;23;19997;-90
2022/01/20 14:10:48;;;;;;;101.90;51.13;;;;;;;;;;6220235;23;20034;-90
2022/01/20 14:13:14;;;;;;;104.45;48.63;;;;;;;;;;6220120;23;20004;-89
2022/01/20 14:15:40;;;;;;;101.82;50.72;;;;;;;;;;6222106;22;20317;-91
2022/01/20 14:18:23;;;;;;;96.68;49.30;;;;;;;;;;6222103;23;20004;-90
2022/01/20 14:20:49;;;;;;;96.55;51.33;;;;;;;;;;6221987;23;20009;-90
2022/01/20 14:23:16;;;;;;;81.65;43.72;;;;;;;;;;6221738;23;20340;-89
2022/01/20 14:25:42;;;;;;;87.50;47.22;;;;;;;;;;6220008;23;20092;-90
2022/01/20 14:28:09;;;;;;;89.53;46.60;;;;;;;;;;6222255;23;20016;-89
2022/01/20 14:30:35;;;;;;;92.32;47.53;;;;;;;;;;6220689;23;20363;-91
2022/01/20 14:33:01;;;;;;;85.07;49.25;;;;;;;;;;6221731;23;20072;-90
2022/01/20 14:35:29;;;;;;;83.63;48.85;;;;;;;;;;6220399;23;20008;-90
2022/01/20 14:37:55;;;;;;;101.90;52.88;;;;;;;;;;6221739;23;20020;-90
2022/01/20 14:40:23;;;;;;;92.60;50.63;;;;;;;;;;6220579;23;20005;-90
2022/01/20 14:42:49;;;;;;;127.70;66.30;;;;;;;;;;6220349;23;20283;-90
2022/01/20 14:45:18;;;;;;;147.43;76.88;;;;;;;;;;6221577;23;20004;-90
2022/01/20 14:47:45;;;;;;;166.57;84.72;;;;;;;;;;6220027;23;20016;-89
2022/01/20 14:50:11;;;;;;;135.13;72.13;;;;;;;;;;6220437;23;20004;-90
2022/01/20 14:52:37;;;;;;;125.82;65.95;;;;;;;;;;6221738;23;20004;-90
2022/01/20 14:55:04;;;;;;;108.72;59.70;;;;;;;;;;6220339;23;20263;-89
2022/01/20 14:57:30;;;;;;;121.03;63.08;;;;;;;;;;6220951;23;19992;-89
2022/01/20 14:59:57;;;;;;;120.95;61.67;;;;;;;;;;6219761;23;20367;-90
2022/01/20 15:02:23;;;;;;;127.50;64.82;;;;;;;;;;6219873;23;20012;-92
2022/01/20 15:04:49;;;;;;;112.85;60.42;;;;;;;;;;6221014;23;20008;-90
2022/01/20 15:07:18;;;;;;;115.78;63.85;;;;;;;;;;6222219;23;20043;-89
2022/01/20 15:09:44;;;;;;;123.57;63.33;;;;;;;;;;6220452;23;20003;-87
2022/01/20 15:12:10;;;;;;;102.35;60.80;;;;;;;;;;6216840;23;20486;-87
2022/01/20 15:14:36;;;;;;;120.13;64.00;;;;;;;;;;6220281;23;20012;-87
2022/01/20 15:17:03;;;;;;;115.45;62.00;;;;;;;;;;6220908;23;20005;-88
2022/01/20 15:19:29;;;;;;;133.73;78.97;;;;;;;;;;6220389;23;20015;-88
2022/01/20 15:21:55;;;;;;;157.65;84.68;;;;;;;;;;6218828;23;20005;-88
2022/01/20 15:24:21;;;;;;;169.57;91.55;;;;;;;;;;6221177;23;20263;-88
2022/01/20 15:26:47;;;;;;;176.10;84.57;;;;;;;;;;6221722;23;19996;-88
2022/01/20 15:29:14;;;;;;;171.45;76.88;;;;;;;;;;6221526;23;20005;-88
2022/01/20 15:31:41;;;;;;;149.68;64.75;;;;;;;;;;6218925;23;20004;-88
2022/01/20 15:34:08;;;;;;;146.00;61.97;;;;;;;;;;6221744;23;20418;-89
2022/01/20 15:36:35;;;;;;;115.20;53.45;;;;;;;;;;6219177;23;20020;-88
2022/01/20 15:39:02;;;;;;;107.32;52.97;;;;;;;;;;6219188;23;20004;-88
2022/01/20 15:41:28;;;;;;;224.65;105.88;;;;;;;;;;6219564;23;20009;-88
2022/01/20 15:43:54;;;;;;;345.80;158.32;;;;;;;;;;6220885;23;20087;-88
2022/01/20 15:46:21;;;;;;;140.52;72.97;;;;;;;;;;6219127;23;20013;-88
2022/01/20 15:48:49;;;;;;;120.22;60.10;;;;;;;;;;6221507;23;20001;-88
2022/01/20 15:51:16;;;;;;;119.05;59.55;;;;;;;;;;6219024;23;20240;-89
2022/01/20 15:53:42;;;;;;;133.50;68.35;;;;;;;;;;6220552;23;20008;-90
2022/01/20 15:56:08;;;;;;;141.82;71.05;;;;;;;;;;6220903;23;20007;-89
2022/01/20 15:58:34;;;;;;;136.32;68.35;;;;;;;;;;6220631;23;20149;-88